sensor_id;sensor_type;location;lat;lon;timestamp;P1;durP1;ratioP1;P2;durP2;ratioP2
9422;SDS011;65863;49.506;10.400;2023-05-20T00:01:58;2.17;;;1.97;;
9422;SDS011;65863;49.506;10.400;2023-05-20T00:04:42;2.83;;;2.27;;
9422;SDS011;65863;49.506;10.400;2023-05-20T00:07:26;3.10;;;2.00;;
9422;SDS011;65863;49.506;10.400;2023-05-20T00:10:10;1.90;;;1.80;;
9422;SDS011;65863;49.506;10.400;2023-05-20T00:12:54;2.80;;;2.50;;
9422;SDS011;65863;49.506;10.400;2023-05-20T00:15:38;3.63;;;2.53;;
9422;SDS011;65863;49.506;10.400;2023-05-20T00:18:22;2.50;;;2.30;;
9422;SDS011;65863;49.506;10.400;2023-05-20T00:21:06;2.50;;;2.07;;
9422;SDS011;65863;49.506;10.400;2023-05-20T00:23:51;2.90;;;2.07;;
9422;SDS011;65863;49.506;10.400;2023-05-20T00:26:35;3.20;;;2.10;;
9422;SDS011;65863;49.506;10.400;2023-05-20T00:29:20;2.43;;;2.23;;
9422;SDS011;65863;49.506;10.400;2023-05-20T00:32:05;2.50;;;2.30;;
9422;SDS011;65863;49.506;10.400;2023-05-20T00:34:56;2.53;;;2.33;;
9422;SDS011;65863;49.506;10.400;2023-05-20T00:37:43;2.47;;;2.23;;
9422;SDS011;65863;49.506;10.400;2023-05-20T00:40:27;2.90;;;2.47;;
9422;SDS011;65863;49.506;10.400;2023-05-20T00:43:11;2.63;;;2.27;;
9422;SDS011;65863;49.506;10.400;2023-05-20T00:45:55;2.67;;;2.17;;
9422;SDS011;65863;49.506;10.400;2023-05-20T00:48:40;2.23;;;2.03;;
9422;SDS011;65863;49.506;10.400;2023-05-20T00:51:26;2.83;;;2.50;;
9422;SDS011;65863;49.506;10.400;2023-05-20T00:54:10;3.43;;;2.37;;
9422;SDS011;65863;49.506;10.400;2023-05-20T00:56:54;2.23;;;2.03;;
9422;SDS011;65863;49.506;10.400;2023-05-20T00:59:39;2.47;;;2.27;;
9422;SDS011;65863;49.506;10.400;2023-05-20T01:02:23;2.93;;;2.37;;
9422;SDS011;65863;49.506;10.400;2023-05-20T01:05:08;2.30;;;2.10;;
9422;SDS011;65863;49.506;10.400;2023-05-20T01:07:52;2.40;;;2.20;;
9422;SDS011;65863;49.506;10.400;2023-05-20T01:10:38;2.40;;;2.20;;
9422;SDS011;65863;49.506;10.400;2023-05-20T01:13:26;2.07;;;1.93;;
9422;SDS011;65863;49.506;10.400;2023-05-20T01:16:17;2.63;;;2.20;;
9422;SDS011;65863;49.506;10.400;2023-05-20T01:19:02;4.93;;;2.63;;
9422;SDS011;65863;49.506;10.400;2023-05-20T01:21:57;2.47;;;2.23;;
9422;SDS011;65863;49.506;10.400;2023-05-20T01:24:44;2.33;;;2.13;;
9422;SDS011;65863;49.506;10.400;2023-05-20T01:27:31;2.87;;;2.43;;
9422;SDS011;65863;49.506;10.400;2023-05-20T01:30:15;4.33;;;2.37;;
9422;SDS011;65863;49.506;10.400;2023-05-20T01:33:00;3.03;;;2.60;;
9422;SDS011;65863;49.506;10.400;2023-05-20T01:35:47;2.43;;;2.23;;
9422;SDS011;65863;49.506;10.400;2023-05-20T01:38:33;2.80;;;2.30;;
9422;SDS011;65863;49.506;10.400;2023-05-20T01:41:19;2.53;;;2.20;;
9422;SDS011;65863;49.506;10.400;2023-05-20T01:44:06;3.20;;;2.37;;
9422;SDS011;65863;49.506;10.400;2023-05-20T01:46:50;2.80;;;2.00;;
9422;SDS011;65863;49.506;10.400;2023-05-20T01:49:33;3.67;;;2.30;;
9422;SDS011;65863;49.506;10.400;2023-05-20T01:52:21;2.40;;;2.20;;
9422;SDS011;65863;49.506;10.400;2023-05-20T01:55:06;2.50;;;2.30;;
9422;SDS011;65863;49.506;10.400;2023-05-20T01:57:50;2.90;;;2.57;;
9422;SDS011;65863;49.506;10.400;2023-05-20T02:00:34;2.70;;;2.50;;
9422;SDS011;65863;49.506;10.400;2023-05-20T02:03:18;3.30;;;2.60;;
9422;SDS011;65863;49.506;10.400;2023-05-20T02:06:02;2.57;;;2.37;;
9422;SDS011;65863;49.506;10.400;2023-05-20T02:08:46;2.80;;;2.37;;
9422;SDS011;65863;49.506;10.400;2023-05-20T02:11:31;2.97;;;2.37;;
9422;SDS011;65863;49.506;10.400;2023-05-20T02:14:15;3.17;;;2.43;;
9422;SDS011;65863;49.506;10.400;2023-05-20T02:16:59;2.83;;;2.40;;
9422;SDS011;65863;49.506;10.400;2023-05-20T02:19:44;5.10;;;2.47;;
9422;SDS011;65863;49.506;10.400;2023-05-20T02:22:29;2.87;;;2.57;;
9422;SDS011;65863;49.506;10.400;2023-05-20T02:25:13;3.80;;;2.90;;
9422;SDS011;65863;49.506;10.400;2023-05-20T02:27:57;3.43;;;2.63;;
9422;SDS011;65863;49.506;10.400;2023-05-20T02:30:41;4.13;;;2.87;;
9422;SDS011;65863;49.506;10.400;2023-05-20T02:33:25;3.63;;;2.97;;
9422;SDS011;65863;49.506;10.400;2023-05-20T02:36:11;2.83;;;2.50;;
9422;SDS011;65863;49.506;10.400;2023-05-20T02:38:55;3.70;;;3.00;;
9422;SDS011;65863;49.506;10.400;2023-05-20T02:41:39;2.87;;;2.57;;
9422;SDS011;65863;49.506;10.400;2023-05-20T02:44:24;3.87;;;2.67;;
9422;SDS011;65863;49.506;10.400;2023-05-20T02:47:07;2.93;;;2.60;;
9422;SDS011;65863;49.506;10.400;2023-05-20T02:49:51;6.10;;;2.93;;
9422;SDS011;65863;49.506;10.400;2023-05-20T02:52:35;3.70;;;2.93;;
9422;SDS011;65863;49.506;10.400;2023-05-20T02:55:20;3.30;;;2.63;;
9422;SDS011;65863;49.506;10.400;2023-05-20T02:58:06;3.13;;;2.83;;
9422;SDS011;65863;49.506;10.400;2023-05-20T03:00:52;2.63;;;2.43;;
9422;SDS011;65863;49.506;10.400;2023-05-20T03:03:37;2.73;;;2.53;;
9422;SDS011;65863;49.506;10.400;2023-05-20T03:06:21;3.27;;;2.97;;
9422;SDS011;65863;49.506;10.400;2023-05-20T03:09:06;3.53;;;3.23;;
9422;SDS011;65863;49.506;10.400;2023-05-20T03:11:51;2.90;;;2.50;;
9422;SDS011;65863;49.506;10.400;2023-05-20T03:14:35;3.23;;;2.90;;
9422;SDS011;65863;49.506;10.400;2023-05-20T03:17:22;3.20;;;2.90;;
9422;SDS011;65863;49.506;10.400;2023-05-20T03:20:06;4.07;;;2.90;;
9422;SDS011;65863;49.506;10.400;2023-05-20T03:22:51;3.20;;;2.90;;
9422;SDS011;65863;49.506;10.400;2023-05-20T03:25:35;3.53;;;3.00;;
9422;SDS011;65863;49.506;10.400;2023-05-20T03:28:20;3.17;;;2.77;;
9422;SDS011;65863;49.506;10.400;2023-05-20T03:31:04;2.80;;;2.50;;
9422;SDS011;65863;49.506;10.400;2023-05-20T03:33:49;3.73;;;3.10;;
9422;SDS011;65863;49.506;10.400;2023-05-20T03:36:33;2.77;;;2.47;;
9422;SDS011;65863;49.506;10.400;2023-05-20T03:39:19;2.93;;;2.63;;
9422;SDS011;65863;49.506;10.400;2023-05-20T03:42:03;2.87;;;2.57;;
9422;SDS011;65863;49.506;10.400;2023-05-20T03:44:48;4.77;;;2.80;;
9422;SDS011;65863;49.506;10.400;2023-05-20T03:47:33;3.23;;;2.93;;
9422;SDS011;65863;49.506;10.400;2023-05-20T03:50:17;3.60;;;2.83;;
9422;SDS011;65863;49.506;10.400;2023-05-20T03:53:01;3.20;;;2.90;;
9422;SDS011;65863;49.506;10.400;2023-05-20T03:55:51;15.63;;;3.50;;
9422;SDS011;65863;49.506;10.400;2023-05-20T03:58:35;3.27;;;2.97;;
9422;SDS011;65863;49.506;10.400;2023-05-20T04:01:22;3.63;;;2.83;;
9422;SDS011;65863;49.506;10.400;2023-05-20T04:04:08;3.40;;;3.10;;
9422;SDS011;65863;49.506;10.400;2023-05-20T04:06:52;3.77;;;3.13;;
9422;SDS011;65863;49.506;10.400;2023-05-20T04:09:37;3.27;;;2.97;;
9422;SDS011;65863;49.506;10.400;2023-05-20T04:12:21;3.43;;;3.03;;
9422;SDS011;65863;49.506;10.400;2023-05-20T04:15:06;4.53;;;3.47;;
9422;SDS011;65863;49.506;10.400;2023-05-20T04:17:58;3.43;;;3.13;;
9422;SDS011;65863;49.506;10.400;2023-05-20T04:20:44;3.60;;;3.10;;
9422;SDS011;65863;49.506;10.400;2023-05-20T04:23:32;3.63;;;3.23;;
9422;SDS011;65863;49.506;10.400;2023-05-20T04:26:16;3.67;;;3.30;;
9422;SDS011;65863;49.506;10.400;2023-05-20T04:29:00;4.03;;;3.47;;
9422;SDS011;65863;49.506;10.400;2023-05-20T04:31:47;3.77;;;3.37;;
9422;SDS011;65863;49.506;10.400;2023-05-20T04:34:31;4.07;;;3.20;;
9422;SDS011;65863;49.506;10.400;2023-05-20T04:37:17;4.07;;;3.33;;
9422;SDS011;65863;49.506;10.400;2023-05-20T04:40:01;6.17;;;3.70;;
9422;SDS011;65863;49.506;10.400;2023-05-20T04:42:49;4.70;;;3.70;;
9422;SDS011;65863;49.506;10.400;2023-05-20T04:45:33;3.47;;;3.13;;
9422;SDS011;65863;49.506;10.400;2023-05-20T04:48:19;4.80;;;3.50;;
9422;SDS011;65863;49.506;10.400;2023-05-20T04:51:03;3.90;;;3.50;;
9422;SDS011;65863;49.506;10.400;2023-05-20T04:53:48;4.10;;;3.33;;
9422;SDS011;65863;49.506;10.400;2023-05-20T04:56:33;3.87;;;3.47;;
9422;SDS011;65863;49.506;10.400;2023-05-20T04:59:17;5.00;;;3.70;;
9422;SDS011;65863;49.506;10.400;2023-05-20T05:02:01;4.47;;;3.40;;
9422;SDS011;65863;49.506;10.400;2023-05-20T05:04:46;4.30;;;3.90;;
9422;SDS011;65863;49.506;10.400;2023-05-20T05:07:30;4.20;;;3.73;;
9422;SDS011;65863;49.506;10.400;2023-05-20T05:10:15;4.23;;;3.47;;
9422;SDS011;65863;49.506;10.400;2023-05-20T05:12:59;3.80;;;3.50;;
9422;SDS011;65863;49.506;10.400;2023-05-20T05:15:44;3.83;;;3.40;;
9422;SDS011;65863;49.506;10.400;2023-05-20T05:18:29;4.33;;;3.93;;
9422;SDS011;65863;49.506;10.400;2023-05-20T05:21:13;4.57;;;3.97;;
9422;SDS011;65863;49.506;10.400;2023-05-20T05:23:59;3.93;;;3.37;;
9422;SDS011;65863;49.506;10.400;2023-05-20T05:26:42;3.93;;;3.20;;
9422;SDS011;65863;49.506;10.400;2023-05-20T05:29:27;4.43;;;3.67;;
9422;SDS011;65863;49.506;10.400;2023-05-20T05:32:11;4.47;;;3.50;;
9422;SDS011;65863;49.506;10.400;2023-05-20T05:34:56;3.93;;;3.50;;
9422;SDS011;65863;49.506;10.400;2023-05-20T05:37:40;4.13;;;3.40;;
9422;SDS011;65863;49.506;10.400;2023-05-20T05:40:25;3.70;;;3.40;;
9422;SDS011;65863;49.506;10.400;2023-05-20T05:43:11;5.00;;;3.90;;
9422;SDS011;65863;49.506;10.400;2023-05-20T05:45:55;5.33;;;3.90;;
9422;SDS011;65863;49.506;10.400;2023-05-20T05:48:39;4.57;;;3.67;;
9422;SDS011;65863;49.506;10.400;2023-05-20T05:51:26;4.90;;;3.87;;
9422;SDS011;65863;49.506;10.400;2023-05-20T05:54:12;4.43;;;3.77;;
9422;SDS011;65863;49.506;10.400;2023-05-20T05:56:56;4.90;;;3.60;;
9422;SDS011;65863;49.506;10.400;2023-05-20T05:59:42;5.87;;;4.00;;
9422;SDS011;65863;49.506;10.400;2023-05-20T06:02:26;4.20;;;3.70;;
9422;SDS011;65863;49.506;10.400;2023-05-20T06:05:11;4.80;;;3.37;;
9422;SDS011;65863;49.506;10.400;2023-05-20T06:07:55;3.53;;;3.07;;
9422;SDS011;65863;49.506;10.400;2023-05-20T06:10:40;6.03;;;3.87;;
9422;SDS011;65863;49.506;10.400;2023-05-20T06:13:24;3.33;;;3.03;;
9422;SDS011;65863;49.506;10.400;2023-05-20T06:16:08;3.87;;;3.10;;
9422;SDS011;65863;49.506;10.400;2023-05-20T06:18:52;3.80;;;3.20;;
9422;SDS011;65863;49.506;10.400;2023-05-20T06:21:39;3.83;;;3.37;;
9422;SDS011;65863;49.506;10.400;2023-05-20T06:24:24;4.17;;;3.70;;
9422;SDS011;65863;49.506;10.400;2023-05-20T06:27:08;4.27;;;3.40;;
9422;SDS011;65863;49.506;10.400;2023-05-20T06:29:52;4.13;;;3.27;;
9422;SDS011;65863;49.506;10.400;2023-05-20T06:32:36;3.77;;;3.30;;
9422;SDS011;65863;49.506;10.400;2023-05-20T06:35:20;3.73;;;3.40;;
9422;SDS011;65863;49.506;10.400;2023-05-20T06:38:04;3.30;;;3.00;;
9422;SDS011;65863;49.506;10.400;2023-05-20T06:40:49;4.10;;;3.67;;
9422;SDS011;65863;49.506;10.400;2023-05-20T06:43:34;3.60;;;2.97;;
9422;SDS011;65863;49.506;10.400;2023-05-20T06:46:46;4.10;;;3.03;;
9422;SDS011;65863;49.506;10.400;2023-05-20T06:49:32;3.87;;;3.40;;
9422;SDS011;65863;49.506;10.400;2023-05-20T06:52:17;3.73;;;3.23;;
9422;SDS011;65863;49.506;10.400;2023-05-20T06:55:03;4.03;;;3.63;;
9422;SDS011;65863;49.506;10.400;2023-05-20T06:57:47;3.80;;;3.40;;
9422;SDS011;65863;49.506;10.400;2023-05-20T07:00:34;4.20;;;3.47;;
9422;SDS011;65863;49.506;10.400;2023-05-20T07:03:19;3.77;;;3.37;;
9422;SDS011;65863;49.506;10.400;2023-05-20T07:06:04;4.37;;;3.33;;
9422;SDS011;65863;49.506;10.400;2023-05-20T07:08:48;3.23;;;2.93;;
9422;SDS011;65863;49.506;10.400;2023-05-20T07:11:33;4.13;;;3.73;;
9422;SDS011;65863;49.506;10.400;2023-05-20T07:14:17;4.70;;;3.70;;
9422;SDS011;65863;49.506;10.400;2023-05-20T07:17:03;3.33;;;3.03;;
9422;SDS011;65863;49.506;10.400;2023-05-20T07:19:48;3.67;;;3.33;;
9422;SDS011;65863;49.506;10.400;2023-05-20T07:22:32;4.00;;;3.40;;
9422;SDS011;65863;49.506;10.400;2023-05-20T07:25:26;3.50;;;3.20;;
9422;SDS011;65863;49.506;10.400;2023-05-20T07:28:10;3.57;;;3.23;;
9422;SDS011;65863;49.506;10.400;2023-05-20T07:30:54;5.13;;;4.00;;
9422;SDS011;65863;49.506;10.400;2023-05-20T07:33:43;4.53;;;4.00;;
9422;SDS011;65863;49.506;10.400;2023-05-20T07:36:27;4.50;;;3.73;;
9422;SDS011;65863;49.506;10.400;2023-05-20T07:39:13;5.40;;;4.37;;
9422;SDS011;65863;49.506;10.400;2023-05-20T07:41:58;5.63;;;3.60;;
9422;SDS011;65863;49.506;10.400;2023-05-20T07:44:42;4.77;;;3.87;;
9422;SDS011;65863;49.506;10.400;2023-05-20T07:47:27;6.30;;;4.23;;
9422;SDS011;65863;49.506;10.400;2023-05-20T07:50:11;4.60;;;4.07;;
9422;SDS011;65863;49.506;10.400;2023-05-20T07:52:55;4.03;;;3.57;;
9422;SDS011;65863;49.506;10.400;2023-05-20T07:55:40;4.10;;;3.70;;
9422;SDS011;65863;49.506;10.400;2023-05-20T07:58:24;5.13;;;3.63;;
9422;SDS011;65863;49.506;10.400;2023-05-20T08:01:09;5.13;;;4.07;;
9422;SDS011;65863;49.506;10.400;2023-05-20T08:03:54;5.97;;;4.37;;
9422;SDS011;65863;49.506;10.400;2023-05-20T08:06:40;4.10;;;3.70;;
9422;SDS011;65863;49.506;10.400;2023-05-20T08:09:29;4.73;;;3.90;;
9422;SDS011;65863;49.506;10.400;2023-05-20T08:12:15;5.60;;;4.07;;
9422;SDS011;65863;49.506;10.400;2023-05-20T08:15:00;5.50;;;4.10;;
9422;SDS011;65863;49.506;10.400;2023-05-20T08:17:44;4.13;;;3.73;;
9422;SDS011;65863;49.506;10.400;2023-05-20T08:20:28;3.90;;;3.50;;
9422;SDS011;65863;49.506;10.400;2023-05-20T08:23:14;4.00;;;3.60;;
9422;SDS011;65863;49.506;10.400;2023-05-20T08:25:59;4.47;;;4.07;;
9422;SDS011;65863;49.506;10.400;2023-05-20T08:28:47;4.60;;;4.07;;
9422;SDS011;65863;49.506;10.400;2023-05-20T08:31:33;4.67;;;3.57;;
9422;SDS011;65863;49.506;10.400;2023-05-20T08:34:18;4.37;;;3.97;;
9422;SDS011;65863;49.506;10.400;2023-05-20T08:37:03;5.17;;;4.10;;
9422;SDS011;65863;49.506;10.400;2023-05-20T08:39:47;4.87;;;3.90;;
9422;SDS011;65863;49.506;10.400;2023-05-20T08:42:32;4.17;;;3.70;;
9422;SDS011;65863;49.506;10.400;2023-05-20T08:45:18;4.50;;;3.60;;
9422;SDS011;65863;49.506;10.400;2023-05-20T08:48:05;4.57;;;3.77;;
9422;SDS011;65863;49.506;10.400;2023-05-20T08:50:50;4.60;;;3.93;;
9422;SDS011;65863;49.506;10.400;2023-05-20T08:53:34;5.43;;;3.43;;
9422;SDS011;65863;49.506;10.400;2023-05-20T08:56:19;4.10;;;3.70;;
9422;SDS011;65863;49.506;10.400;2023-05-20T08:59:04;4.87;;;3.80;;
9422;SDS011;65863;49.506;10.400;2023-05-20T09:01:49;6.27;;;3.90;;
9422;SDS011;65863;49.506;10.400;2023-05-20T09:04:33;4.60;;;3.60;;
9422;SDS011;65863;49.506;10.400;2023-05-20T09:07:27;5.03;;;3.50;;
9422;SDS011;65863;49.506;10.400;2023-05-20T09:10:11;4.13;;;3.67;;
9422;SDS011;65863;49.506;10.400;2023-05-20T09:12:56;4.30;;;3.63;;
9422;SDS011;65863;49.506;10.400;2023-05-20T09:15:40;4.30;;;3.90;;
9422;SDS011;65863;49.506;10.400;2023-05-20T09:18:24;4.77;;;3.90;;
9422;SDS011;65863;49.506;10.400;2023-05-20T09:21:09;4.10;;;3.70;;
9422;SDS011;65863;49.506;10.400;2023-05-20T09:23:54;6.83;;;3.43;;
9422;SDS011;65863;49.506;10.400;2023-05-20T09:26:42;4.00;;;3.60;;
9422;SDS011;65863;49.506;10.400;2023-05-20T09:29:26;3.93;;;3.50;;
9422;SDS011;65863;49.506;10.400;2023-05-20T09:32:10;4.33;;;3.70;;
9422;SDS011;65863;49.506;10.400;2023-05-20T09:34:55;4.07;;;3.67;;
9422;SDS011;65863;49.506;10.400;2023-05-20T09:37:41;4.07;;;3.27;;
9422;SDS011;65863;49.506;10.400;2023-05-20T09:40:27;4.53;;;3.90;;
9422;SDS011;65863;49.506;10.400;2023-05-20T09:43:11;4.33;;;3.40;;
9422;SDS011;65863;49.506;10.400;2023-05-20T09:45:56;5.00;;;3.77;;
9422;SDS011;65863;49.506;10.400;2023-05-20T09:48:42;4.00;;;3.60;;
9422;SDS011;65863;49.506;10.400;2023-05-20T09:51:27;4.33;;;3.53;;
9422;SDS011;65863;49.506;10.400;2023-05-20T09:54:12;3.63;;;3.30;;
9422;SDS011;65863;49.506;10.400;2023-05-20T09:56:57;4.33;;;3.40;;
9422;SDS011;65863;49.506;10.400;2023-05-20T09:59:42;3.40;;;3.10;;
9422;SDS011;65863;49.506;10.400;2023-05-20T10:02:27;5.03;;;3.63;;
9422;SDS011;65863;49.506;10.400;2023-05-20T10:05:14;3.80;;;3.40;;
9422;SDS011;65863;49.506;10.400;2023-05-20T10:08:15;5.10;;;3.50;;
9422;SDS011;65863;49.506;10.400;2023-05-20T10:20:47;3.73;;;3.33;;
9422;SDS011;65863;49.506;10.400;2023-05-20T10:23:32;4.00;;;3.43;;
9422;SDS011;65863;49.506;10.400;2023-05-20T10:26:17;3.67;;;3.30;;
9422;SDS011;65863;49.506;10.400;2023-05-20T10:29:01;3.60;;;3.30;;
9422;SDS011;65863;49.506;10.400;2023-05-20T10:31:56;3.60;;;3.23;;
9422;SDS011;65863;49.506;10.400;2023-05-20T10:34:47;3.33;;;3.03;;
9422;SDS011;65863;49.506;10.400;2023-05-20T10:37:39;3.90;;;3.30;;
9422;SDS011;65863;49.506;10.400;2023-05-20T10:40:24;4.00;;;3.17;;
9422;SDS011;65863;49.506;10.400;2023-05-20T10:43:09;3.60;;;3.17;;
9422;SDS011;65863;49.506;10.400;2023-05-20T10:45:57;6.10;;;3.53;;
9422;SDS011;65863;49.506;10.400;2023-05-20T10:48:42;3.37;;;2.97;;
9422;SDS011;65863;49.506;10.400;2023-05-20T10:51:27;3.30;;;3.00;;
9422;SDS011;65863;49.506;10.400;2023-05-20T10:54:14;4.87;;;2.80;;
9422;SDS011;65863;49.506;10.400;2023-05-20T10:56:57;6.53;;;3.20;;
9422;SDS011;65863;49.506;10.400;2023-05-20T10:59:42;4.10;;;3.30;;
9422;SDS011;65863;49.506;10.400;2023-05-20T11:02:26;3.50;;;3.20;;
9422;SDS011;65863;49.506;10.400;2023-05-20T11:05:11;4.20;;;3.30;;
9422;SDS011;65863;49.506;10.400;2023-05-20T11:08:02;3.37;;;2.80;;
9422;SDS011;65863;49.506;10.400;2023-05-20T11:10:50;3.30;;;3.00;;
9422;SDS011;65863;49.506;10.400;2023-05-20T11:13:34;3.80;;;3.10;;
9422;SDS011;65863;49.506;10.400;2023-05-20T11:16:19;3.77;;;3.27;;
9422;SDS011;65863;49.506;10.400;2023-05-20T11:19:06;3.23;;;2.97;;
9422;SDS011;65863;49.506;10.400;2023-05-20T11:21:51;3.63;;;3.07;;
9422;SDS011;65863;49.506;10.400;2023-05-20T11:24:36;3.60;;;3.10;;
9422;SDS011;65863;49.506;10.400;2023-05-20T11:27:20;2.93;;;2.63;;
9422;SDS011;65863;49.506;10.400;2023-05-20T11:30:04;4.33;;;3.60;;
9422;SDS011;65863;49.506;10.400;2023-05-20T11:32:56;3.60;;;3.30;;
9422;SDS011;65863;49.506;10.400;2023-05-20T11:35:44;3.47;;;3.00;;
9422;SDS011;65863;49.506;10.400;2023-05-20T11:38:29;3.60;;;3.30;;
9422;SDS011;65863;49.506;10.400;2023-05-20T11:41:14;3.47;;;3.17;;
9422;SDS011;65863;49.506;10.400;2023-05-20T11:43:59;3.47;;;3.00;;
9422;SDS011;65863;49.506;10.400;2023-05-20T11:46:44;6.87;;;3.40;;
9422;SDS011;65863;49.506;10.400;2023-05-20T11:49:29;3.43;;;3.10;;
9422;SDS011;65863;49.506;10.400;2023-05-20T11:52:21;3.30;;;3.00;;
9422;SDS011;65863;49.506;10.400;2023-05-20T11:55:08;2.90;;;2.60;;
9422;SDS011;65863;49.506;10.400;2023-05-20T11:57:53;3.23;;;2.93;;
9422;SDS011;65863;49.506;10.400;2023-05-20T12:00:39;3.60;;;2.87;;
9422;SDS011;65863;49.506;10.400;2023-05-20T12:03:23;2.67;;;2.47;;
9422;SDS011;65863;49.506;10.400;2023-05-20T12:06:08;3.73;;;3.00;;
9422;SDS011;65863;49.506;10.400;2023-05-20T12:08:54;7.33;;;3.07;;
9422;SDS011;65863;49.506;10.400;2023-05-20T12:11:38;4.03;;;3.37;;
9422;SDS011;65863;49.506;10.400;2023-05-20T12:14:27;3.33;;;3.03;;
9422;SDS011;65863;49.506;10.400;2023-05-20T12:17:11;4.17;;;2.90;;
9422;SDS011;65863;49.506;10.400;2023-05-20T12:19:55;3.27;;;2.97;;
9422;SDS011;65863;49.506;10.400;2023-05-20T12:22:39;3.60;;;2.97;;
9422;SDS011;65863;49.506;10.400;2023-05-20T12:25:24;3.30;;;2.80;;
9422;SDS011;65863;49.506;10.400;2023-05-20T12:28:08;6.43;;;3.00;;
9422;SDS011;65863;49.506;10.400;2023-05-20T12:30:53;3.30;;;3.00;;
9422;SDS011;65863;49.506;10.400;2023-05-20T12:33:36;3.47;;;2.90;;
9422;SDS011;65863;49.506;10.400;2023-05-20T12:36:21;5.40;;;3.13;;
9422;SDS011;65863;49.506;10.400;2023-05-20T12:39:05;3.70;;;3.40;;
9422;SDS011;65863;49.506;10.400;2023-05-20T12:41:50;3.27;;;2.83;;
9422;SDS011;65863;49.506;10.400;2023-05-20T12:44:34;3.20;;;2.90;;
9422;SDS011;65863;49.506;10.400;2023-05-20T12:47:19;3.93;;;3.50;;
9422;SDS011;65863;49.506;10.400;2023-05-20T12:50:03;4.00;;;3.40;;
9422;SDS011;65863;49.506;10.400;2023-05-20T12:52:47;2.90;;;2.70;;
9422;SDS011;65863;49.506;10.400;2023-05-20T12:55:31;3.13;;;2.80;;
9422;SDS011;65863;49.506;10.400;2023-05-20T12:58:15;3.47;;;3.10;;
9422;SDS011;65863;49.506;10.400;2023-05-20T13:00:59;4.03;;;3.33;;
9422;SDS011;65863;49.506;10.400;2023-05-20T13:03:44;4.23;;;3.20;;
9422;SDS011;65863;49.506;10.400;2023-05-20T13:06:28;3.60;;;3.30;;
9422;SDS011;65863;49.506;10.400;2023-05-20T13:09:14;3.43;;;3.13;;
9422;SDS011;65863;49.506;10.400;2023-05-20T13:11:58;3.10;;;2.80;;
9422;SDS011;65863;49.506;10.400;2023-05-20T13:14:43;3.63;;;2.83;;
9422;SDS011;65863;49.506;10.400;2023-05-20T13:17:27;4.23;;;3.13;;
9422;SDS011;65863;49.506;10.400;2023-05-20T13:20:11;3.00;;;2.77;;
9422;SDS011;65863;49.506;10.400;2023-05-20T13:22:55;3.50;;;3.20;;
9422;SDS011;65863;49.506;10.400;2023-05-20T13:25:39;3.27;;;2.97;;
9422;SDS011;65863;49.506;10.400;2023-05-20T13:28:23;3.40;;;3.10;;
9422;SDS011;65863;49.506;10.400;2023-05-20T13:31:07;3.17;;;2.87;;
9422;SDS011;65863;49.506;10.400;2023-05-20T13:33:51;3.57;;;3.20;;
9422;SDS011;65863;49.506;10.400;2023-05-20T13:36:35;3.70;;;3.23;;
9422;SDS011;65863;49.506;10.400;2023-05-20T13:39:20;5.20;;;3.17;;
9422;SDS011;65863;49.506;10.400;2023-05-20T13:42:04;3.40;;;3.10;;
9422;SDS011;65863;49.506;10.400;2023-05-20T13:44:47;3.80;;;3.27;;
9422;SDS011;65863;49.506;10.400;2023-05-20T13:47:32;3.30;;;3.00;;
9422;SDS011;65863;49.506;10.400;2023-05-20T13:50:16;4.00;;;3.47;;
9422;SDS011;65863;49.506;10.400;2023-05-20T13:53:00;3.93;;;3.23;;
9422;SDS011;65863;49.506;10.400;2023-05-20T13:55:44;4.03;;;3.30;;
9422;SDS011;65863;49.506;10.400;2023-05-20T13:58:28;8.07;;;3.43;;
9422;SDS011;65863;49.506;10.400;2023-05-20T14:01:12;4.57;;;3.20;;
9422;SDS011;65863;49.506;10.400;2023-05-20T14:03:56;3.50;;;3.20;;
9422;SDS011;65863;49.506;10.400;2023-05-20T14:06:40;3.27;;;2.97;;
9422;SDS011;65863;49.506;10.400;2023-05-20T14:09:24;3.57;;;3.23;;
9422;SDS011;65863;49.506;10.400;2023-05-20T14:12:09;4.60;;;3.50;;
9422;SDS011;65863;49.506;10.400;2023-05-20T14:14:53;4.47;;;3.37;;
9422;SDS011;65863;49.506;10.400;2023-05-20T14:17:37;3.73;;;3.30;;
9422;SDS011;65863;49.506;10.400;2023-05-20T14:20:21;3.70;;;3.30;;
9422;SDS011;65863;49.506;10.400;2023-05-20T14:23:06;3.30;;;3.00;;
9422;SDS011;65863;49.506;10.400;2023-05-20T14:25:50;3.67;;;3.10;;
9422;SDS011;65863;49.506;10.400;2023-05-20T14:28:34;3.53;;;3.23;;
9422;SDS011;65863;49.506;10.400;2023-05-20T14:31:18;3.60;;;3.30;;
9422;SDS011;65863;49.506;10.400;2023-05-20T14:34:02;4.93;;;3.40;;
9422;SDS011;65863;49.506;10.400;2023-05-20T14:36:46;4.90;;;3.50;;
9422;SDS011;65863;49.506;10.400;2023-05-20T14:39:30;5.17;;;3.60;;
9422;SDS011;65863;49.506;10.400;2023-05-20T14:42:14;3.70;;;3.17;;
9422;SDS011;65863;49.506;10.400;2023-05-20T14:44:58;4.10;;;3.60;;
9422;SDS011;65863;49.506;10.400;2023-05-20T14:47:42;3.80;;;3.40;;
9422;SDS011;65863;49.506;10.400;2023-05-20T14:50:26;4.03;;;3.30;;
9422;SDS011;65863;49.506;10.400;2023-05-20T14:53:10;3.97;;;3.67;;
9422;SDS011;65863;49.506;10.400;2023-05-20T14:55:54;3.73;;;3.20;;
9422;SDS011;65863;49.506;10.400;2023-05-20T14:58:38;4.63;;;3.43;;
9422;SDS011;65863;49.506;10.400;2023-05-20T15:01:22;3.60;;;3.30;;
9422;SDS011;65863;49.506;10.400;2023-05-20T15:04:06;3.90;;;3.40;;
9422;SDS011;65863;49.506;10.400;2023-05-20T15:06:50;4.83;;;3.20;;
9422;SDS011;65863;49.506;10.400;2023-05-20T15:09:35;3.60;;;3.30;;
9422;SDS011;65863;49.506;10.400;2023-05-20T15:12:19;5.13;;;3.07;;
9422;SDS011;65863;49.506;10.400;2023-05-20T15:15:03;5.10;;;3.20;;
9422;SDS011;65863;49.506;10.400;2023-05-20T15:17:47;3.53;;;3.23;;
9422;SDS011;65863;49.506;10.400;2023-05-20T15:20:32;3.57;;;3.27;;
9422;SDS011;65863;49.506;10.400;2023-05-20T15:23:16;4.03;;;3.57;;
9422;SDS011;65863;49.506;10.400;2023-05-20T15:26:00;3.83;;;3.30;;
9422;SDS011;65863;49.506;10.400;2023-05-20T15:28:44;3.60;;;3.23;;
9422;SDS011;65863;49.506;10.400;2023-05-20T15:31:28;3.57;;;2.93;;
9422;SDS011;65863;49.506;10.400;2023-05-20T15:34:12;3.37;;;2.80;;
9422;SDS011;65863;49.506;10.400;2023-05-20T15:36:57;3.23;;;2.93;;
9422;SDS011;65863;49.506;10.400;2023-05-20T15:39:41;3.57;;;3.00;;
9422;SDS011;65863;49.506;10.400;2023-05-20T15:42:25;3.50;;;3.00;;
9422;SDS011;65863;49.506;10.400;2023-05-20T15:45:09;3.53;;;2.83;;
9422;SDS011;65863;49.506;10.400;2023-05-20T15:47:53;4.53;;;3.50;;
9422;SDS011;65863;49.506;10.400;2023-05-20T15:50:37;3.53;;;3.23;;
9422;SDS011;65863;49.506;10.400;2023-05-20T15:53:21;3.50;;;3.07;;
9422;SDS011;65863;49.506;10.400;2023-05-20T15:56:05;3.60;;;3.30;;
9422;SDS011;65863;49.506;10.400;2023-05-20T15:58:50;3.77;;;3.30;;
9422;SDS011;65863;49.506;10.400;2023-05-20T16:01:34;3.80;;;3.30;;
9422;SDS011;65863;49.506;10.400;2023-05-20T16:04:18;4.73;;;3.70;;
9422;SDS011;65863;49.506;10.400;2023-05-20T16:07:03;3.87;;;3.20;;
9422;SDS011;65863;49.506;10.400;2023-05-20T16:09:47;5.20;;;4.00;;
9422;SDS011;65863;49.506;10.400;2023-05-20T16:12:31;4.10;;;3.27;;
9422;SDS011;65863;49.506;10.400;2023-05-20T16:15:15;5.37;;;3.30;;
9422;SDS011;65863;49.506;10.400;2023-05-20T16:17:59;3.57;;;3.10;;
9422;SDS011;65863;49.506;10.400;2023-05-20T16:20:43;3.27;;;2.97;;
9422;SDS011;65863;49.506;10.400;2023-05-20T16:23:28;3.97;;;3.00;;
9422;SDS011;65863;49.506;10.400;2023-05-20T16:26:12;4.37;;;3.00;;
9422;SDS011;65863;49.506;10.400;2023-05-20T16:28:56;3.83;;;3.43;;
9422;SDS011;65863;49.506;10.400;2023-05-20T16:31:40;3.57;;;3.10;;
9422;SDS011;65863;49.506;10.400;2023-05-20T16:34:27;4.97;;;3.27;;
9422;SDS011;65863;49.506;10.400;2023-05-20T16:37:15;3.70;;;3.40;;
9422;SDS011;65863;49.506;10.400;2023-05-20T16:39:59;3.73;;;3.00;;
9422;SDS011;65863;49.506;10.400;2023-05-20T16:42:43;3.80;;;3.03;;
9422;SDS011;65863;49.506;10.400;2023-05-20T16:45:28;3.07;;;2.77;;